Disclaimer

Please do not use the information listed here in-flight or in-navigation, as they are not provided to us by the airports but are provided by volunteers, so they might be outdated.

Search


Regions


Airport information page

Radio informations:
AFIS INFO - 118.7 MHz
RDO - 5680 MHz

Airport informations:
Latitude: 13° 44' 12.54" N
Longitude: 013° 39' 11.24" W
Elevation: 161 feet - 49 meters
Operating hours: Remarks
Operating agency: Civil government, landing fees and diplomatic clearance may be required
Timezone: UTC 0
Fuel: 100/130 octane gasoline, leaded, MIL-L-5572F (GREEN)

Runway information:
06/24 - 6562 x 98 feet< - >2000 x 30 meters

Recent METARs:
GOTT 131400Z 02008KT 320V080 CAVOK 38/09 Q1008
GOTT 131400Z 02008KT 320V080 CAVOK 38/09 Q1008
GOTT 131500Z 04006KT CAVOK 38/05 Q1007

Airport on the map: